Time;durP1;ratioP1;P1;durP2;ratioP2;P2;SDS_P1;SDS_P2;PMS_P1;PMS_P2;Temp;Humidity;BMP_temperature;BMP_pressure;BME280_temperature;BME280_humidity;BME280_pressure;Samples;Min_cycle;Max_cycle;Signal;HPM_P1;HPM_P2
2021/11/10 00:02:19;;;;;;;42.50;14.10;;;;;;;-146.90;100.00;60518.97;5028769;28;20563;-75
2021/11/10 00:04:45;;;;;;;42.85;14.60;;;;;;;-146.90;100.00;60518.97;5029170;28;20049;-76
2021/11/10 00:07:10;;;;;;;47.75;14.63;;;;;;;-146.90;100.00;60518.97;5027261;28;20026;-75
2021/11/10 00:09:35;;;;;;;44.90;14.40;;;;;;;-146.90;100.00;60518.97;5028715;28;20025;-74
2021/11/10 00:12:01;;;;;;;39.53;13.32;;;;;;;-146.90;100.00;60518.97;5028008;28;20022;-74
2021/11/10 00:14:26;;;;;;;38.63;13.10;;;;;;;-146.90;100.00;60518.97;5028841;28;20034;-74
2021/11/10 00:16:56;;;;;;;41.60;13.00;;;;;;;-146.90;100.00;60518.97;5028267;28;20402;-74
2021/11/10 00:19:22;;;;;;;39.47;13.00;;;;;;;-146.90;100.00;60518.97;5028235;28;20022;-74
2021/11/10 00:21:48;;;;;;;42.88;12.30;;;;;;;-146.90;100.00;60518.97;5027874;28;20030;-74
2021/11/10 00:24:13;;;;;;;43.55;11.48;;;;;;;-146.90;100.00;60518.97;5028480;28;20105;-74
2021/11/10 00:26:38;;;;;;;34.83;9.95;;;;;;;-146.90;100.00;60518.97;5028792;28;20029;-74
2021/11/10 00:29:04;;;;;;;30.83;10.57;;;;;;;-146.90;100.00;60518.97;5027898;28;20113;-75
2021/11/10 00:31:29;;;;;;;31.30;9.77;;;;;;;-146.90;100.00;60518.97;5028316;28;20119;-75
2021/11/10 00:33:55;;;;;;;37.60;9.48;;;;;;;-146.90;100.00;60518.97;5028232;28;20048;-74
2021/11/10 00:36:20;;;;;;;36.95;11.23;;;;;;;-146.90;100.00;60518.97;5028384;28;20034;-74
2021/11/10 00:38:46;;;;;;;29.40;9.93;;;;;;;-146.90;100.00;60518.97;5027940;28;20017;-75
2021/11/10 00:41:12;;;;;;;30.08;9.98;;;;;;;-146.90;100.00;60518.97;5027975;28;20032;-75
2021/11/10 00:43:37;;;;;;;31.42;10.35;;;;;;;-146.90;100.00;60518.97;5027344;28;20040;-75
2021/11/10 00:46:03;;;;;;;25.48;10.07;;;;;;;-146.90;100.00;60518.97;5027709;28;20108;-75
2021/11/10 00:48:28;;;;;;;32.95;9.73;;;;;;;-146.90;100.00;60518.97;5028209;28;20057;-75
2021/11/10 00:50:53;;;;;;;31.77;10.35;;;;;;;-146.90;100.00;60518.97;5027581;28;20037;-75
2021/11/10 00:53:19;;;;;;;32.45;10.00;;;;;;;-146.90;100.00;60518.97;5030172;28;20040;-75
2021/11/10 00:55:44;;;;;;;29.38;10.05;;;;;;;-146.90;100.00;60518.97;5031913;28;20466;-75
2021/11/10 00:58:10;;;;;;;26.10;9.43;;;;;;;-146.90;100.00;60518.97;5031232;28;20484;-75
2021/11/10 01:00:36;;;;;;;26.95;10.02;;;;;;;-146.90;100.00;60518.97;5031828;28;20136;-75
2021/11/10 01:03:03;;;;;;;26.33;9.32;;;;;;;-146.90;100.00;60518.97;5031116;28;20026;-75
2021/11/10 01:05:28;;;;;;;28.55;9.25;;;;;;;-146.90;100.00;60518.97;5030677;28;20499;-75
2021/11/10 01:07:55;;;;;;;26.55;10.07;;;;;;;-146.90;100.00;60518.97;5030764;28;20033;-75
2021/11/10 01:10:22;;;;;;;30.33;9.57;;;;;;;-146.90;100.00;60518.97;5032306;28;20045;-74
2021/11/10 01:12:48;;;;;;;31.45;10.82;;;;;;;-146.90;100.00;60518.97;5031333;28;20033;-74
2021/11/10 01:15:14;;;;;;;32.17;10.15;;;;;;;-146.90;100.00;60518.97;5032122;28;20029;-75
2021/11/10 01:17:39;;;;;;;34.30;10.63;;;;;;;-146.90;100.00;60518.97;5031940;28;20084;-74
2021/11/10 01:20:06;;;;;;;30.77;10.75;;;;;;;-146.90;100.00;60518.97;5031633;28;20064;-75
2021/11/10 01:22:32;;;;;;;35.63;12.02;;;;;;;-146.90;100.00;60518.97;5031264;28;20049;-75
2021/11/10 01:24:57;;;;;;;32.53;12.57;;;;;;;-146.90;100.00;60518.97;5031037;28;20518;-75
2021/11/10 01:27:22;;;;;;;34.17;12.25;;;;;;;-146.90;100.00;60518.97;5029921;28;20545;-75
2021/11/10 01:29:48;;;;;;;32.95;12.23;;;;;;;-146.90;100.00;60518.97;5031002;28;20026;-75
2021/11/10 01:32:13;;;;;;;37.60;12.40;;;;;;;-146.90;100.00;60518.97;5030050;28;20025;-75
2021/11/10 01:34:39;;;;;;;37.75;12.48;;;;;;;-146.90;100.00;60518.97;5030974;28;20030;-75
2021/11/10 01:37:04;;;;;;;38.55;12.65;;;;;;;-146.90;100.00;60518.97;5029882;28;20079;-75
2021/11/10 01:39:30;;;;;;;31.77;11.73;;;;;;;-146.90;100.00;60518.97;5031237;28;20033;-75
2021/11/10 01:42:04;;;;;;;34.72;12.55;;;;;;;-146.90;100.00;60518.97;5030624;28;20017;-75
2021/11/10 01:44:31;;;;;;;33.97;12.60;;;;;;;-146.90;100.00;60518.97;5029684;28;20029;-75
2021/11/10 01:46:59;;;;;;;35.22;13.00;;;;;;;-146.90;100.00;60518.97;5028953;28;20029;-74
2021/11/10 01:49:24;;;;;;;37.90;13.55;;;;;;;-146.90;100.00;60518.97;5030808;28;20021;-75
2021/11/10 01:51:52;;;;;;;34.55;13.20;;;;;;;-146.90;100.00;60518.97;5029754;28;20107;-75
2021/11/10 01:54:20;;;;;;;33.33;12.57;;;;;;;-146.90;100.00;60518.97;5013381;28;20045;-75
2021/11/10 01:56:46;;;;;;;43.25;14.20;;;;;;;-146.90;100.00;60518.97;5030399;28;20426;-75
2021/11/10 01:59:27;;;;;;;41.45;12.90;;;;;;;-146.90;100.00;60518.97;5028997;28;20035;-73
2021/11/10 02:01:53;;;;;;;37.20;14.10;;;;;;;-146.90;100.00;60518.97;5028794;28;20026;-74
2021/11/10 02:04:18;;;;;;;38.22;13.10;;;;;;;-146.90;100.00;60518.97;5029863;28;20072;-74
2021/11/10 02:06:43;;;;;;;36.63;13.60;;;;;;;-146.90;100.00;60518.97;5030541;28;20064;-74
2021/11/10 02:09:09;;;;;;;45.13;14.18;;;;;;;-146.90;100.00;60518.97;5029578;28;20033;-74
2021/11/10 02:11:35;;;;;;;43.75;13.25;;;;;;;-146.90;100.00;60518.97;5030343;28;20104;-73
2021/11/10 02:14:01;;;;;;;33.88;12.82;;;;;;;-146.90;100.00;60518.97;5028705;28;20026;-75
2021/11/10 02:16:27;;;;;;;43.20;14.23;;;;;;;-146.90;100.00;60518.97;5029173;28;20112;-75
2021/11/10 02:18:54;;;;;;;36.10;13.25;;;;;;;-146.90;100.00;60518.97;5027821;28;20022;-75
2021/11/10 02:21:20;;;;;;;40.45;13.63;;;;;;;-146.90;100.00;60518.97;5030467;28;20021;-75
2021/11/10 02:23:45;;;;;;;38.65;13.48;;;;;;;-146.90;100.00;60518.97;5030145;28;20040;-75
2021/11/10 02:26:12;;;;;;;35.67;13.43;;;;;;;-146.90;100.00;60518.97;5028669;28;20470;-75
2021/11/10 02:28:38;;;;;;;38.13;13.95;;;;;;;-146.90;100.00;60518.97;5028780;28;20661;-75
2021/11/10 02:31:04;;;;;;;38.97;12.80;;;;;;;-146.90;100.00;60518.97;5027978;28;21015;-74
2021/11/10 02:33:29;;;;;;;33.85;13.52;;;;;;;-146.90;100.00;60518.97;5030601;28;20104;-75
2021/11/10 02:35:59;;;;;;;39.20;14.35;;;;;;;-146.90;100.00;60518.97;5029896;28;20501;-76
2021/11/10 02:38:25;;;;;;;40.72;13.65;;;;;;;-146.90;100.00;60518.97;5028730;28;20021;-76
2021/11/10 02:40:56;;;;;;;38.00;13.75;;;;;;;-146.90;100.00;60518.97;5029302;28;20033;-76
2021/11/10 02:43:22;;;;;;;36.97;13.80;;;;;;;-146.90;100.00;60518.97;5029223;28;20088;-75
2021/11/10 02:45:48;;;;;;;39.40;14.10;;;;;;;-146.90;100.00;60518.97;5029963;28;20100;-76
2021/11/10 02:48:13;;;;;;;41.35;14.25;;;;;;;-146.90;100.00;60518.97;5028336;28;20029;-75
2021/11/10 02:50:39;;;;;;;39.20;14.65;;;;;;;-146.90;100.00;60518.97;5029591;28;20442;-74
2021/11/10 02:53:04;;;;;;;41.53;15.25;;;;;;;-146.90;100.00;60518.97;5029698;28;20124;-75
2021/11/10 02:55:30;;;;;;;37.85;14.38;;;;;;;-146.90;100.00;60518.97;5029907;28;20398;-75
2021/11/10 02:57:56;;;;;;;46.30;15.70;;;;;;;-146.90;100.00;60518.97;5028597;28;20509;-75
2021/11/10 03:00:21;;;;;;;44.60;14.73;;;;;;;-146.90;100.00;60518.97;5028327;28;20025;-75
2021/11/10 03:02:46;;;;;;;44.88;15.50;;;;;;;-146.90;100.00;60518.97;5029318;28;20037;-74
2021/11/10 03:05:12;;;;;;;39.97;14.82;;;;;;;-146.90;100.00;60518.97;5029396;28;20022;-74
2021/11/10 03:07:37;;;;;;;44.30;15.80;;;;;;;-146.90;100.00;60518.97;5027581;28;20034;-74
2021/11/10 03:10:04;;;;;;;51.65;17.13;;;;;;;-146.90;100.00;60518.97;5029276;28;20117;-75
2021/11/10 03:12:29;;;;;;;47.88;16.38;;;;;;;-146.90;100.00;60518.97;5029271;28;20056;-75
2021/11/10 03:14:56;;;;;;;48.38;16.67;;;;;;;-146.90;100.00;60518.97;5028906;28;20068;-75
2021/11/10 03:17:22;;;;;;;46.60;17.92;;;;;;;-146.90;100.00;60518.97;5028475;28;20442;-75
2021/11/10 03:19:47;;;;;;;53.45;16.63;;;;;;;-146.90;100.00;60518.97;5029124;28;20100;-75
2021/11/10 03:22:14;;;;;;;44.00;15.40;;;;;;;-146.90;100.00;60518.97;5029436;28;20030;-75
2021/11/10 03:24:39;;;;;;;46.70;15.80;;;;;;;-146.90;100.00;60518.97;5028111;28;20033;-74
2021/11/10 03:27:05;;;;;;;42.78;15.80;;;;;;;-146.90;100.00;60518.97;5026704;28;20513;-75
2021/11/10 03:29:32;;;;;;;41.20;14.90;;;;;;;-146.90;100.00;60518.97;5027794;28;20029;-75
2021/11/10 03:31:58;;;;;;;45.33;14.73;;;;;;;-146.90;100.00;60518.97;5027350;28;20036;-75
2021/11/10 03:34:23;;;;;;;44.50;15.60;;;;;;;-146.90;100.00;60518.97;5029291;28;20029;-74
2021/11/10 03:36:49;;;;;;;37.63;14.95;;;;;;;-146.90;100.00;60518.97;5028542;28;20371;-74
2021/11/10 03:39:16;;;;;;;39.90;13.80;;;;;;;-146.90;100.00;60518.97;5028733;28;20386;-74
2021/11/10 03:41:42;;;;;;;41.33;13.55;;;;;;;-146.90;100.00;60518.97;5029201;28;20032;-74
2021/11/10 03:44:08;;;;;;;37.30;12.77;;;;;;;-146.90;100.00;60518.97;5028343;28;20046;-75
2021/11/10 03:46:34;;;;;;;35.40;13.00;;;;;;;-146.90;100.00;60518.97;5029114;28;20033;-75
2021/11/10 03:49:00;;;;;;;36.13;12.93;;;;;;;-146.90;100.00;60518.97;5027843;28;20035;-75
2021/11/10 03:51:27;;;;;;;32.88;12.20;;;;;;;-146.90;100.00;60518.97;5028615;28;20064;-75
2021/11/10 03:53:54;;;;;;;37.13;12.13;;;;;;;-146.90;100.00;60518.97;5028832;28;20018;-75
2021/11/10 03:56:20;;;;;;;35.22;12.45;;;;;;;-146.90;100.00;60518.97;5028855;28;20079;-75
2021/11/10 03:58:45;;;;;;;34.72;11.48;;;;;;;-146.90;100.00;60518.97;5027916;28;20105;-75
2021/11/10 04:01:13;;;;;;;39.80;12.75;;;;;;;-146.90;100.00;60518.97;5028573;28;20091;-74
2021/11/10 04:03:38;;;;;;;38.80;12.80;;;;;;;-146.90;100.00;60518.97;5028780;28;20414;-74
2021/11/10 04:06:04;;;;;;;31.45;11.27;;;;;;;-146.90;100.00;60518.97;5028179;28;20030;-75
2021/11/10 04:08:29;;;;;;;38.22;11.90;;;;;;;-146.90;100.00;60518.97;5018911;28;20026;-75
2021/11/10 04:10:55;;;;;;;33.78;11.77;;;;;;;-146.90;100.00;60518.97;5008510;28;20113;-75
2021/11/10 04:13:21;;;;;;;35.42;11.70;;;;;;;-146.90;100.00;60518.97;5009020;28;20118;-75
2021/11/10 04:15:47;;;;;;;30.20;10.68;;;;;;;-146.90;100.00;60518.97;5023746;28;20041;-74
2021/11/10 04:18:13;;;;;;;33.03;11.48;;;;;;;-146.90;100.00;60518.97;5008687;28;20026;-76
2021/11/10 04:20:38;;;;;;;36.88;11.13;;;;;;;-146.90;100.00;60518.97;5009136;28;20018;-75
2021/11/10 04:23:04;;;;;;;31.80;10.57;;;;;;;-146.90;100.00;60518.97;5008832;28;20099;-75
2021/11/10 04:25:29;;;;;;;33.22;10.38;;;;;;;-146.90;100.00;60518.97;5008742;28;20096;-75
2021/11/10 04:27:55;;;;;;;31.50;11.18;;;;;;;-146.90;100.00;60518.97;5009087;28;20037;-75
2021/11/10 04:30:20;;;;;;;29.83;9.55;;;;;;;-146.90;100.00;60518.97;5012948;28;20018;-75
2021/11/10 04:32:46;;;;;;;36.55;11.60;;;;;;;-146.90;100.00;60518.97;5012169;28;20041;-74
2021/11/10 04:35:12;;;;;;;31.38;10.35;;;;;;;-146.90;100.00;60518.97;5012142;28;20026;-74
2021/11/10 04:37:38;;;;;;;27.40;10.43;;;;;;;-146.90;100.00;60518.97;5012583;28;20120;-74
2021/11/10 04:40:04;;;;;;;29.30;10.88;;;;;;;-146.90;100.00;60518.97;5011872;28;20077;-75
2021/11/10 04:42:30;;;;;;;37.35;10.73;;;;;;;-146.90;100.00;60518.97;5012093;28;20018;-75
2021/11/10 04:45:02;;;;;;;32.83;10.13;;;;;;;-146.90;100.00;60518.97;5011964;28;20053;-75
2021/11/10 04:47:27;;;;;;;29.92;9.75;;;;;;;-146.90;100.00;60518.97;5011568;28;20071;-75
2021/11/10 04:49:52;;;;;;;25.90;9.20;;;;;;;-146.90;100.00;60518.97;5011458;28;20048;-74
2021/11/10 04:52:19;;;;;;;29.90;9.75;;;;;;;-146.90;100.00;60518.97;5012182;28;20026;-74
2021/11/10 04:54:44;;;;;;;29.20;9.52;;;;;;;-146.90;100.00;60518.97;5011635;28;20568;-74
2021/11/10 04:57:09;;;;;;;30.08;9.32;;;;;;;-146.90;100.00;60518.97;5026579;28;20037;-74
2021/11/10 04:59:35;;;;;;;25.30;8.48;;;;;;;-146.90;100.00;60518.97;5016735;28;20017;-75
2021/11/10 05:04:33;;;;;;;27.98;9.15;;;;;;;-146.90;100.00;60518.97;5031533;28;20034;-77
2021/11/10 05:06:59;;;;;;;27.30;8.80;;;;;;;-146.90;100.00;60518.97;5028936;28;20018;-77
2021/11/10 05:09:24;;;;;;;24.02;9.02;;;;;;;-146.90;100.00;60518.97;5028285;28;20087;-74
2021/11/10 05:11:49;;;;;;;27.95;9.10;;;;;;;-146.90;100.00;60518.97;5029983;28;20061;-77
2021/11/10 05:14:15;;;;;;;25.65;8.75;;;;;;;-146.90;100.00;60518.97;5031355;28;20467;-75
2021/11/10 05:16:40;;;;;;;31.70;9.52;;;;;;;-146.90;100.00;60518.97;5031006;28;20047;-78
2021/11/10 05:19:05;;;;;;;27.58;8.80;;;;;;;-146.90;100.00;60518.97;5030435;28;20033;-79
2021/11/10 05:21:31;;;;;;;24.50;8.30;;;;;;;-146.90;100.00;60518.97;5031179;28;20033;-75
2021/11/10 05:23:56;;;;;;;23.05;8.23;;;;;;;-146.90;100.00;60518.97;5030399;28;20092;-76
2021/11/10 05:26:21;;;;;;;21.13;8.20;;;;;;;-146.90;100.00;60518.97;5031585;28;20033;-76
2021/11/10 05:28:47;;;;;;;23.13;8.05;;;;;;;-146.90;100.00;60518.97;5030400;28;20049;-75
2021/11/10 05:31:12;;;;;;;25.95;8.57;;;;;;;-146.90;100.00;60518.97;5030497;28;20171;-78
2021/11/10 05:33:38;;;;;;;26.60;8.32;;;;;;;-146.90;100.00;60518.97;5030608;28;20055;-75
2021/11/10 05:36:03;;;;;;;25.80;8.93;;;;;;;-146.90;100.00;60518.97;5034859;28;20029;-77
2021/11/10 05:38:29;;;;;;;23.08;8.20;;;;;;;-146.90;100.00;60518.97;5039789;28;20113;-78
2021/11/10 05:40:54;;;;;;;30.75;8.48;;;;;;;-146.90;100.00;60518.97;5027556;28;20060;-76
2021/11/10 05:43:19;;;;;;;28.45;8.68;;;;;;;-146.90;100.00;60518.97;5030665;28;20025;-77
2021/11/10 05:45:45;;;;;;;22.60;7.82;;;;;;;-146.90;100.00;60518.97;5030018;28;20052;-75
2021/11/10 05:48:10;;;;;;;25.70;8.82;;;;;;;-146.90;100.00;60518.97;5029837;28;20026;-76
2021/11/10 05:50:36;;;;;;;25.70;8.43;;;;;;;-146.90;100.00;60518.97;5029776;28;20033;-74
2021/11/10 05:53:01;;;;;;;25.95;8.77;;;;;;;-146.90;100.00;60518.97;5030492;28;20386;-74
2021/11/10 05:55:28;;;;;;;31.55;10.02;;;;;;;-146.90;100.00;60518.97;5030440;28;20144;-74
2021/11/10 05:57:54;;;;;;;22.00;9.32;;;;;;;-146.90;100.00;60518.97;5029475;28;20043;-77
2021/11/10 06:00:20;;;;;;;23.40;8.25;;;;;;;-146.90;100.00;60518.97;5030151;28;20502;-76
2021/11/10 06:02:45;;;;;;;22.05;8.13;;;;;;;-146.90;100.00;60518.97;5034441;28;20124;-77
2021/11/10 06:05:13;;;;;;;31.40;9.02;;;;;;;-146.90;100.00;60518.97;5028398;28;20194;-75
2021/11/10 06:07:38;;;;;;;22.63;8.10;;;;;;;-146.90;100.00;60518.97;5027474;28;20022;-74
2021/11/10 06:10:04;;;;;;;26.70;8.63;;;;;;;-146.90;100.00;60518.97;5037764;28;20605;-73
2021/11/10 06:12:30;;;;;;;22.42;7.65;;;;;;;-146.90;100.00;60518.97;5029880;28;20026;-74
2021/11/10 06:14:55;;;;;;;23.60;8.45;;;;;;;-146.90;100.00;60518.97;5031073;28;20029;-77
2021/11/10 06:17:21;;;;;;;22.55;8.77;;;;;;;-146.90;100.00;60518.97;5024697;28;20346;-76
2021/11/10 06:19:46;;;;;;;26.77;8.57;;;;;;;-146.90;100.00;60518.97;5021653;28;20470;-73
2021/11/10 06:22:11;;;;;;;24.27;7.55;;;;;;;-146.90;100.00;60518.97;5011787;28;20030;-73
2021/11/10 06:24:37;;;;;;;29.55;8.43;;;;;;;-146.90;100.00;60518.97;5021925;28;20092;-73
2021/11/10 06:27:03;;;;;;;26.23;9.07;;;;;;;-146.90;100.00;60518.97;5024111;28;20315;-74
2021/11/10 06:29:28;;;;;;;28.95;9.60;;;;;;;-146.90;100.00;60518.97;5037536;28;20437;-75
2021/11/10 06:31:53;;;;;;;31.95;8.95;;;;;;;-146.90;100.00;60518.97;5034944;28;20021;-76
2021/11/10 06:34:19;;;;;;;26.80;9.07;;;;;;;-146.90;100.00;60518.97;5040871;28;20405;-78
2021/11/10 06:36:44;;;;;;;33.70;10.25;;;;;;;-146.90;100.00;60518.97;5036272;28;20386;-77
2021/11/10 06:39:11;;;;;;;27.65;9.60;;;;;;;-146.90;100.00;60518.97;5035755;28;20036;-75
2021/11/10 06:41:37;;;;;;;29.05;9.50;;;;;;;-146.90;100.00;60518.97;5036025;28;20030;-75
2021/11/10 06:44:03;;;;;;;31.13;10.13;;;;;;;-146.90;100.00;60518.97;5034193;28;20037;-77
2021/11/10 06:46:28;;;;;;;27.42;9.13;;;;;;;-146.90;100.00;60518.97;5037165;28;20490;-75
2021/11/10 06:48:54;;;;;;;23.45;9.05;;;;;;;-146.90;100.00;60518.97;5033875;28;20029;-75
2021/11/10 06:51:20;;;;;;;25.33;9.90;;;;;;;-146.90;100.00;60518.97;5032366;28;20025;-76
2021/11/10 06:53:45;;;;;;;30.75;10.38;;;;;;;-146.90;100.00;60518.97;5036724;28;20057;-77
2021/11/10 06:56:12;;;;;;;29.40;10.77;;;;;;;-146.90;100.00;60518.97;5038075;28;20033;-81
2021/11/10 06:58:39;;;;;;;27.75;9.85;;;;;;;-146.90;100.00;60518.97;5025368;28;20267;-81
2021/11/10 07:01:05;;;;;;;24.08;9.50;;;;;;;-146.90;100.00;60518.97;5017851;28;20033;-80
2021/11/10 07:03:30;;;;;;;32.20;10.02;;;;;;;-146.90;100.00;60518.97;5013233;28;20383;-81
2021/11/10 07:05:56;;;;;;;28.73;9.80;;;;;;;-146.90;100.00;60518.97;5025121;28;20097;-77
2021/11/10 07:08:22;;;;;;;23.77;9.50;;;;;;;-146.90;100.00;60518.97;5008488;28;20434;-76
2021/11/10 07:10:47;;;;;;;31.10;9.20;;;;;;;-146.90;100.00;60518.97;5007137;28;20026;-77
2021/11/10 07:13:12;;;;;;;30.08;10.15;;;;;;;-146.90;100.00;60518.97;5009755;28;20092;-76
2021/11/10 07:15:38;;;;;;;34.92;10.35;;;;;;;-146.90;100.00;60518.97;5022626;28;20082;-76
2021/11/10 07:18:03;;;;;;;27.15;9.80;;;;;;;-146.90;100.00;60518.97;5032231;28;20092;-77
2021/11/10 07:20:29;;;;;;;28.63;10.18;;;;;;;-146.90;100.00;60518.97;5026828;28;20112;-77
2021/11/10 07:22:58;;;;;;;26.70;10.27;;;;;;;-146.90;100.00;60518.97;5027880;28;20489;-78
2021/11/10 07:25:24;;;;;;;37.47;11.48;;;;;;;-146.90;100.00;60518.97;5029294;28;20094;-77
2021/11/10 07:27:49;;;;;;;24.15;9.40;;;;;;;-146.90;100.00;60518.97;5027229;28;20037;-75
2021/11/10 07:30:16;;;;;;;27.77;8.90;;;;;;;-146.90;100.00;60518.97;5027170;28;20087;-77
2021/11/10 07:32:42;;;;;;;28.13;9.43;;;;;;;-146.90;100.00;60518.97;5028302;28;20500;-76
2021/11/10 07:35:09;;;;;;;32.95;9.35;;;;;;;-146.90;100.00;60518.97;5027792;28;20033;-75
2021/11/10 07:37:34;;;;;;;28.23;10.30;;;;;;;-146.90;100.00;60518.97;5029594;28;20048;-77
2021/11/10 07:40:00;;;;;;;28.77;10.25;;;;;;;-146.90;100.00;60518.97;5026941;28;20588;-78
2021/11/10 07:42:26;;;;;;;29.67;9.63;;;;;;;-146.90;100.00;60518.97;5026355;28;20060;-76
2021/11/10 07:44:55;;;;;;;26.77;9.52;;;;;;;-146.90;100.00;60518.97;5026508;28;20044;-78
2021/11/10 07:47:22;;;;;;;31.60;10.05;;;;;;;-146.90;100.00;60518.97;5028953;28;20040;-77
2021/11/10 07:49:48;;;;;;;30.90;10.63;;;;;;;-146.90;100.00;60518.97;5027743;28;20277;-75
2021/11/10 07:52:14;;;;;;;30.45;9.68;;;;;;;-146.90;100.00;60518.97;5028437;28;20495;-77
2021/11/10 07:54:40;;;;;;;23.60;9.10;;;;;;;-146.90;100.00;60518.97;5029156;28;20050;-77
2021/11/10 07:57:06;;;;;;;22.35;9.48;;;;;;;-146.90;100.00;60518.97;5026465;28;20363;-74
2021/11/10 07:59:31;;;;;;;33.67;10.23;;;;;;;-146.90;100.00;60518.97;5027447;28;20482;-76
2021/11/10 08:01:56;;;;;;;31.13;9.82;;;;;;;-146.90;100.00;60518.97;5029287;28;20026;-77
2021/11/10 08:04:22;;;;;;;25.85;9.52;;;;;;;-146.90;100.00;60518.97;5034101;28;20029;-76
2021/11/10 08:06:48;;;;;;;28.67;9.05;;;;;;;-146.90;100.00;60518.97;5034789;28;20025;-76
2021/11/10 08:09:14;;;;;;;25.30;9.50;;;;;;;-146.90;100.00;60518.97;5032298;28;20477;-80
2021/11/10 08:11:39;;;;;;;25.02;9.90;;;;;;;-146.90;100.00;60518.97;5032267;28;20359;-77
2021/11/10 08:14:06;;;;;;;33.63;10.07;;;;;;;-146.90;100.00;60518.97;5036201;28;20112;-77
2021/11/10 08:16:32;;;;;;;26.63;9.30;;;;;;;-146.90;100.00;60518.97;5032837;28;20037;-76
2021/11/10 08:18:58;;;;;;;26.58;8.73;;;;;;;-146.90;100.00;60518.97;5030923;28;20390;-76
2021/11/10 08:21:24;;;;;;;35.67;11.50;;;;;;;-146.90;100.00;60518.97;5039158;28;20095;-75
2021/11/10 08:23:49;;;;;;;25.40;10.60;;;;;;;-146.90;100.00;60518.97;5031879;28;20037;-77
2021/11/10 08:26:15;;;;;;;29.15;10.32;;;;;;;-146.90;100.00;60518.97;5032397;28;20100;-77
2021/11/10 08:28:40;;;;;;;28.75;10.10;;;;;;;-146.90;100.00;60518.97;5030040;28;20076;-77
2021/11/10 08:31:07;;;;;;;28.65;10.35;;;;;;;-146.90;100.00;60518.97;5031082;28;20525;-76
2021/11/10 08:33:33;;;;;;;28.13;10.13;;;;;;;-146.90;100.00;60518.97;5029744;28;20152;-76
2021/11/10 08:35:59;;;;;;;30.48;9.88;;;;;;;-146.90;100.00;60518.97;5030880;28;20021;-76
2021/11/10 08:38:26;;;;;;;29.85;9.68;;;;;;;-146.90;100.00;60518.97;5031504;28;20532;-76
2021/11/10 08:40:51;;;;;;;29.15;9.98;;;;;;;-146.90;100.00;60518.97;5028636;28;20079;-76
2021/11/10 08:43:17;;;;;;;30.05;9.73;;;;;;;-146.90;100.00;60518.97;5031194;28;20037;-78
2021/11/10 08:45:45;;;;;;;28.60;9.88;;;;;;;-146.90;100.00;60518.97;5030775;28;20021;-78
2021/11/10 08:48:11;;;;;;;29.67;9.50;;;;;;;-146.90;100.00;60518.97;5028836;28;20026;-76
2021/11/10 08:50:41;;;;;;;30.10;9.55;;;;;;;-146.90;100.00;60518.97;5029734;28;20043;-77
2021/11/10 08:53:06;;;;;;;35.97;10.20;;;;;;;-146.90;100.00;60518.97;5029739;28;20029;-77
2021/11/10 08:55:34;;;;;;;29.73;9.77;;;;;;;-146.90;100.00;60518.97;5031431;28;20040;-75
2021/11/10 08:57:59;;;;;;;28.02;10.20;;;;;;;-146.90;100.00;60518.97;5029489;28;20024;-77
2021/11/10 09:00:28;;;;;;;28.80;9.80;;;;;;;-146.90;100.00;60518.97;5030117;28;20395;-77
2021/11/10 09:02:54;;;;;;;28.95;11.02;;;;;;;-146.90;100.00;60518.97;5026498;28;20112;-78
2021/11/10 09:05:20;;;;;;;26.50;8.60;;;;;;;-146.90;100.00;60518.97;5043009;28;20025;-77
2021/11/10 09:07:45;;;;;;;29.30;10.05;;;;;;;-146.90;100.00;60518.97;5048633;28;20029;-76
2021/11/10 09:10:13;;;;;;;34.75;9.00;;;;;;;-146.90;100.00;60518.97;5046904;28;20474;-76
2021/11/10 09:12:39;;;;;;;26.90;9.60;;;;;;;-146.90;100.00;60518.97;5029563;28;20061;-78
2021/11/10 09:15:08;;;;;;;32.28;8.75;;;;;;;-146.90;100.00;60518.97;5020547;28;20033;-79
2021/11/10 09:17:35;;;;;;;25.02;9.10;;;;;;;-146.90;100.00;60518.97;5028703;28;20037;-78
2021/11/10 09:20:04;;;;;;;28.45;9.13;;;;;;;-146.90;100.00;60518.97;5028663;28;20040;-77
2021/11/10 09:22:30;;;;;;;26.67;9.15;;;;;;;-146.90;100.00;60518.97;5031104;28;20108;-76
2021/11/10 09:24:55;;;;;;;26.77;9.50;;;;;;;-146.90;100.00;60518.97;5037690;28;20107;-78
2021/11/10 09:27:21;;;;;;;24.52;9.13;;;;;;;-146.90;100.00;60518.97;5025866;28;20032;-79
2021/11/10 09:29:46;;;;;;;23.60;8.45;;;;;;;-146.90;100.00;60518.97;5040882;28;20048;-78
2021/11/10 09:32:12;;;;;;;26.90;9.23;;;;;;;-146.90;100.00;60518.97;5034402;28;20398;-77
2021/11/10 09:34:39;;;;;;;26.25;9.40;;;;;;;-146.90;100.00;60518.97;5037852;28;20447;-77
2021/11/10 09:37:04;;;;;;;27.52;9.40;;;;;;;-146.90;100.00;60518.97;5029505;28;20433;-77
2021/11/10 09:39:30;;;;;;;26.15;8.70;;;;;;;-146.90;100.00;60518.97;5030625;28;20025;-78
2021/11/10 09:41:56;;;;;;;30.50;9.32;;;;;;;-146.90;100.00;60518.97;5028842;28;20029;-77
2021/11/10 09:44:24;;;;;;;32.70;10.10;;;;;;;-146.90;100.00;60518.97;5030402;28;20029;-78
2021/11/10 09:46:50;;;;;;;23.88;9.55;;;;;;;-146.90;100.00;60518.97;5033569;28;20091;-79
2021/11/10 09:49:16;;;;;;;29.55;9.02;;;;;;;-146.90;100.00;60518.97;5034123;28;20402;-77
2021/11/10 09:51:44;;;;;;;24.58;9.75;;;;;;;-146.90;100.00;60518.97;5028782;28;20120;-78
2021/11/10 09:54:12;;;;;;;31.95;9.07;;;;;;;-146.90;100.00;60518.97;5028855;28;20474;-77
2021/11/10 09:56:38;;;;;;;29.00;9.50;;;;;;;-146.90;100.00;60518.97;5030404;28;20029;-78
2021/11/10 09:59:04;;;;;;;24.88;8.98;;;;;;;-146.90;100.00;60518.97;5030782;28;20119;-77
2021/11/10 10:01:32;;;;;;;27.13;8.90;;;;;;;-146.90;100.00;60518.97;5032600;28;20018;-76
2021/11/10 10:03:58;;;;;;;23.70;8.85;;;;;;;-146.90;100.00;60518.97;5029049;28;20037;-77
2021/11/10 10:06:24;;;;;;;23.80;9.18;;;;;;;-146.90;100.00;60518.97;5036613;28;20043;-77
2021/11/10 10:08:50;;;;;;;25.08;9.32;;;;;;;-146.90;100.00;60518.97;5033863;28;20350;-76
2021/11/10 10:11:15;;;;;;;22.75;9.18;;;;;;;-146.90;100.00;60518.97;5038583;28;20040;-75
2021/11/10 10:13:41;;;;;;;21.60;8.32;;;;;;;-146.90;100.00;60518.97;5032637;28;20036;-76
2021/11/10 10:16:07;;;;;;;31.73;9.00;;;;;;;-146.90;100.00;60518.97;5037905;28;20035;-77
2021/11/10 10:18:33;;;;;;;23.17;8.27;;;;;;;-146.90;100.00;60518.97;5032183;28;20512;-77
2021/11/10 10:21:03;;;;;;;28.13;9.20;;;;;;;-146.90;100.00;60518.97;5032515;28;20076;-77
2021/11/10 10:23:32;;;;;;;23.50;8.82;;;;;;;-146.90;100.00;60518.97;5028007;28;20068;-77
2021/11/10 10:26:14;;;;;;;27.42;9.10;;;;;;;-146.90;100.00;60518.97;5023262;28;20389;-77
2021/11/10 10:28:47;;;;;;;24.42;9.35;;;;;;;-146.90;100.00;60518.97;5043359;28;20056;-76
2021/11/10 10:31:25;;;;;;;27.13;7.88;;;;;;;-146.90;100.00;60518.97;5041392;28;20104;-76
2021/11/10 10:33:59;;;;;;;21.52;9.07;;;;;;;-146.90;100.00;60518.97;5042573;28;20040;-77
2021/11/10 10:36:32;;;;;;;27.45;8.68;;;;;;;-146.90;100.00;60518.97;5043115;28;20379;-76
2021/11/10 10:39:00;;;;;;;25.48;9.55;;;;;;;-146.90;100.00;60518.97;5038537;28;20029;-76
2021/11/10 10:41:29;;;;;;;22.42;9.23;;;;;;;-146.90;100.00;60518.97;5041236;28;20069;-76
2021/11/10 10:43:57;;;;;;;19.38;8.10;;;;;;;-146.90;100.00;60518.97;5042995;28;20044;-74
2021/11/10 10:46:31;;;;;;;26.00;9.05;;;;;;;-146.90;100.00;60518.97;5042974;28;20025;-75
2021/11/10 10:49:11;;;;;;;21.23;8.45;;;;;;;-146.90;100.00;60518.97;5028806;28;20083;-77
2021/11/10 10:51:36;;;;;;;26.48;9.13;;;;;;;-146.90;100.00;60518.97;5029468;28;20056;-77
2021/11/10 10:54:05;;;;;;;31.55;9.15;;;;;;;-146.90;100.00;60518.97;5027312;28;20405;-77
2021/11/10 10:56:35;;;;;;;21.40;9.38;;;;;;;-146.90;100.00;60518.97;5026651;28;20029;-76